sensor_id;sensor_type;location;lat;lon;timestamp;P1;durP1;ratioP1;P2;durP2;ratioP2
1276;SDS011;631;51.024;13.826;2023-08-07T00:00:36;14.40;;;13.50;;
1276;SDS011;631;51.024;13.826;2023-08-07T00:03:01;14.30;;;13.17;;
1276;SDS011;631;51.024;13.826;2023-08-07T00:05:27;13.40;;;12.60;;
1276;SDS011;631;51.024;13.826;2023-08-07T00:07:53;13.07;;;12.30;;
1276;SDS011;631;51.024;13.826;2023-08-07T00:10:19;12.97;;;12.20;;
1276;SDS011;631;51.024;13.826;2023-08-07T00:12:45;13.00;;;12.20;;
1276;SDS011;631;51.024;13.826;2023-08-07T00:15:10;13.20;;;12.50;;
1276;SDS011;631;51.024;13.826;2023-08-07T00:17:36;12.57;;;11.87;;
1276;SDS011;631;51.024;13.826;2023-08-07T00:20:02;13.07;;;12.27;;
1276;SDS011;631;51.024;13.826;2023-08-07T00:22:29;13.17;;;12.30;;
1276;SDS011;631;51.024;13.826;2023-08-07T00:24:54;12.60;;;11.90;;
1276;SDS011;631;51.024;13.826;2023-08-07T00:27:20;11.93;;;11.33;;
1276;SDS011;631;51.024;13.826;2023-08-07T00:29:46;12.17;;;11.40;;
1276;SDS011;631;51.024;13.826;2023-08-07T00:32:11;13.03;;;12.27;;
1276;SDS011;631;51.024;13.826;2023-08-07T00:34:37;12.90;;;12.20;;
1276;SDS011;631;51.024;13.826;2023-08-07T00:37:03;12.27;;;11.57;;
1276;SDS011;631;51.024;13.826;2023-08-07T00:39:28;12.80;;;11.90;;
1276;SDS011;631;51.024;13.826;2023-08-07T00:41:54;12.50;;;11.70;;
1276;SDS011;631;51.024;13.826;2023-08-07T00:44:19;12.47;;;11.77;;
1276;SDS011;631;51.024;13.826;2023-08-07T00:46:45;12.93;;;12.00;;
1276;SDS011;631;51.024;13.826;2023-08-07T00:49:12;12.30;;;11.60;;
1276;SDS011;631;51.024;13.826;2023-08-07T00:51:38;12.50;;;11.80;;
1276;SDS011;631;51.024;13.826;2023-08-07T00:54:05;12.77;;;12.07;;
1276;SDS011;631;51.024;13.826;2023-08-07T00:56:32;12.33;;;11.73;;
1276;SDS011;631;51.024;13.826;2023-08-07T00:58:58;12.10;;;11.50;;
1276;SDS011;631;51.024;13.826;2023-08-07T01:01:25;11.90;;;11.20;;
1276;SDS011;631;51.024;13.826;2023-08-07T01:03:51;12.20;;;11.50;;
1276;SDS011;631;51.024;13.826;2023-08-07T01:06:17;12.80;;;12.10;;
1276;SDS011;631;51.024;13.826;2023-08-07T01:08:43;11.53;;;10.93;;
1276;SDS011;631;51.024;13.826;2023-08-07T01:14:08;12.60;;;11.90;;
1276;SDS011;631;51.024;13.826;2023-08-07T01:19:30;13.50;;;12.60;;
1276;SDS011;631;51.024;13.826;2023-08-07T01:22:08;13.33;;;12.60;;
1276;SDS011;631;51.024;13.826;2023-08-07T01:24:45;14.43;;;13.63;;
1276;SDS011;631;51.024;13.826;2023-08-07T01:32:39;16.00;;;15.00;;
1276;SDS011;631;51.024;13.826;2023-08-07T01:35:06;15.77;;;14.77;;
1276;SDS011;631;51.024;13.826;2023-08-07T01:37:34;15.30;;;14.43;;
1276;SDS011;631;51.024;13.826;2023-08-07T01:40:03;16.30;;;15.30;;
1276;SDS011;631;51.024;13.826;2023-08-07T01:42:30;15.47;;;14.67;;
1276;SDS011;631;51.024;13.826;2023-08-07T01:44:57;16.93;;;15.93;;
1276;SDS011;631;51.024;13.826;2023-08-07T01:47:23;16.23;;;15.20;;
1276;SDS011;631;51.024;13.826;2023-08-07T01:49:48;14.80;;;13.80;;
1276;SDS011;631;51.024;13.826;2023-08-07T01:52:14;15.37;;;14.37;;
1276;SDS011;631;51.024;13.826;2023-08-07T01:54:40;15.10;;;14.30;;
1276;SDS011;631;51.024;13.826;2023-08-07T01:57:06;15.37;;;14.47;;
1276;SDS011;631;51.024;13.826;2023-08-07T01:59:31;16.30;;;15.00;;
1276;SDS011;631;51.024;13.826;2023-08-07T02:01:57;15.57;;;14.57;;
1276;SDS011;631;51.024;13.826;2023-08-07T02:04:22;15.00;;;14.10;;
1276;SDS011;631;51.024;13.826;2023-08-07T02:06:48;14.97;;;14.07;;
1276;SDS011;631;51.024;13.826;2023-08-07T02:09:13;15.43;;;14.53;;
1276;SDS011;631;51.024;13.826;2023-08-07T02:11:39;15.83;;;14.83;;
1276;SDS011;631;51.024;13.826;2023-08-07T02:14:05;15.30;;;14.40;;
1276;SDS011;631;51.024;13.826;2023-08-07T02:16:30;15.30;;;14.40;;
1276;SDS011;631;51.024;13.826;2023-08-07T02:18:56;16.00;;;15.07;;
1276;SDS011;631;51.024;13.826;2023-08-07T02:21:21;15.63;;;14.70;;
1276;SDS011;631;51.024;13.826;2023-08-07T02:23:47;15.47;;;14.50;;
1276;SDS011;631;51.024;13.826;2023-08-07T02:26:13;17.30;;;16.10;;
1276;SDS011;631;51.024;13.826;2023-08-07T02:28:38;17.17;;;16.07;;
1276;SDS011;631;51.024;13.826;2023-08-07T02:31:04;16.73;;;15.63;;
1276;SDS011;631;51.024;13.826;2023-08-07T02:33:29;18.07;;;16.90;;
1276;SDS011;631;51.024;13.826;2023-08-07T02:35:55;16.37;;;15.37;;
1276;SDS011;631;51.024;13.826;2023-08-07T02:38:21;17.80;;;16.60;;
1276;SDS011;631;51.024;13.826;2023-08-07T02:40:47;18.03;;;16.83;;
1276;SDS011;631;51.024;13.826;2023-08-07T02:43:12;18.03;;;16.30;;
1276;SDS011;631;51.024;13.826;2023-08-07T02:45:38;17.10;;;16.00;;
1276;SDS011;631;51.024;13.826;2023-08-07T02:48:04;18.60;;;17.20;;
1276;SDS011;631;51.024;13.826;2023-08-07T02:50:30;17.07;;;15.97;;
1276;SDS011;631;51.024;13.826;2023-08-07T02:52:57;18.10;;;16.80;;
1276;SDS011;631;51.024;13.826;2023-08-07T02:55:24;18.43;;;17.13;;
1276;SDS011;631;51.024;13.826;2023-08-07T02:57:49;18.43;;;17.20;;
1276;SDS011;631;51.024;13.826;2023-08-07T03:00:15;19.23;;;17.70;;
1276;SDS011;631;51.024;13.826;2023-08-07T03:02:40;17.97;;;16.67;;
1276;SDS011;631;51.024;13.826;2023-08-07T03:05:06;19.50;;;18.00;;
1276;SDS011;631;51.024;13.826;2023-08-07T03:07:32;20.73;;;19.13;;
1276;SDS011;631;51.024;13.826;2023-08-07T03:09:58;19.40;;;18.03;;
1276;SDS011;631;51.024;13.826;2023-08-07T03:12:23;18.33;;;17.03;;
1276;SDS011;631;51.024;13.826;2023-08-07T03:14:49;19.53;;;18.07;;
1276;SDS011;631;51.024;13.826;2023-08-07T03:17:15;18.07;;;16.97;;
1276;SDS011;631;51.024;13.826;2023-08-07T03:19:41;16.60;;;15.50;;
1276;SDS011;631;51.024;13.826;2023-08-07T03:22:08;16.50;;;15.30;;
1276;SDS011;631;51.024;13.826;2023-08-07T03:24:34;16.53;;;15.20;;
1276;SDS011;631;51.024;13.826;2023-08-07T03:26:59;16.17;;;15.10;;
1276;SDS011;631;51.024;13.826;2023-08-07T03:29:25;15.80;;;14.77;;
1276;SDS011;631;51.024;13.826;2023-08-07T03:31:50;14.90;;;14.00;;
1276;SDS011;631;51.024;13.826;2023-08-07T03:34:16;15.53;;;14.40;;
1276;SDS011;631;51.024;13.826;2023-08-07T03:36:42;14.23;;;13.43;;
1276;SDS011;631;51.024;13.826;2023-08-07T03:39:07;14.47;;;13.57;;
1276;SDS011;631;51.024;13.826;2023-08-07T03:41:35;14.60;;;13.70;;
1276;SDS011;631;51.024;13.826;2023-08-07T03:44:00;14.30;;;13.50;;
1276;SDS011;631;51.024;13.826;2023-08-07T03:46:26;14.43;;;13.63;;
1276;SDS011;631;51.024;13.826;2023-08-07T03:48:52;14.70;;;13.80;;
1276;SDS011;631;51.024;13.826;2023-08-07T03:51:17;14.30;;;13.50;;
1276;SDS011;631;51.024;13.826;2023-08-07T03:53:43;14.97;;;13.97;;
1276;SDS011;631;51.024;13.826;2023-08-07T03:56:08;14.50;;;13.50;;
1276;SDS011;631;51.024;13.826;2023-08-07T03:58:34;14.50;;;13.70;;
1276;SDS011;631;51.024;13.826;2023-08-07T04:01:00;14.37;;;13.47;;
1276;SDS011;631;51.024;13.826;2023-08-07T04:03:25;15.13;;;13.60;;
1276;SDS011;631;51.024;13.826;2023-08-07T04:05:51;14.73;;;13.83;;
1276;SDS011;631;51.024;13.826;2023-08-07T04:08:18;15.20;;;14.20;;
1276;SDS011;631;51.024;13.826;2023-08-07T04:10:44;13.77;;;12.87;;
1276;SDS011;631;51.024;13.826;2023-08-07T04:13:10;13.00;;;12.00;;
1276;SDS011;631;51.024;13.826;2023-08-07T04:15:36;14.60;;;13.50;;
1276;SDS011;631;51.024;13.826;2023-08-07T04:18:01;14.60;;;13.70;;
1276;SDS011;631;51.024;13.826;2023-08-07T04:20:27;14.10;;;13.30;;
1276;SDS011;631;51.024;13.826;2023-08-07T04:22:53;13.93;;;13.07;;
1276;SDS011;631;51.024;13.826;2023-08-07T04:25:18;15.87;;;14.87;;
1276;SDS011;631;51.024;13.826;2023-08-07T04:27:44;15.40;;;14.50;;
1276;SDS011;631;51.024;13.826;2023-08-07T04:30:09;15.60;;;14.60;;
1276;SDS011;631;51.024;13.826;2023-08-07T04:32:35;16.43;;;15.20;;
1276;SDS011;631;51.024;13.826;2023-08-07T04:35:01;15.70;;;14.40;;
1276;SDS011;631;51.024;13.826;2023-08-07T04:37:27;15.70;;;14.70;;
1276;SDS011;631;51.024;13.826;2023-08-07T04:39:55;16.40;;;15.30;;
1276;SDS011;631;51.024;13.826;2023-08-07T04:42:20;16.90;;;15.80;;
1276;SDS011;631;51.024;13.826;2023-08-07T04:44:46;19.27;;;17.87;;
1276;SDS011;631;51.024;13.826;2023-08-07T04:47:12;16.90;;;15.60;;
1276;SDS011;631;51.024;13.826;2023-08-07T04:49:37;18.03;;;16.63;;
1276;SDS011;631;51.024;13.826;2023-08-07T04:52:03;19.83;;;17.83;;
1276;SDS011;631;51.024;13.826;2023-08-07T04:54:29;18.83;;;17.30;;
1276;SDS011;631;51.024;13.826;2023-08-07T04:56:54;20.10;;;18.60;;
1276;SDS011;631;51.024;13.826;2023-08-07T04:59:20;19.53;;;17.90;;
1276;SDS011;631;51.024;13.826;2023-08-07T05:01:46;19.00;;;17.43;;
1276;SDS011;631;51.024;13.826;2023-08-07T05:04:11;19.77;;;18.17;;
1276;SDS011;631;51.024;13.826;2023-08-07T05:06:37;20.80;;;19.20;;
1276;SDS011;631;51.024;13.826;2023-08-07T05:09:02;20.50;;;18.63;;
1276;SDS011;631;51.024;13.826;2023-08-07T05:11:28;20.87;;;19.27;;
1276;SDS011;631;51.024;13.826;2023-08-07T05:13:54;20.97;;;19.30;;
1276;SDS011;631;51.024;13.826;2023-08-07T05:16:19;19.80;;;18.20;;
1276;SDS011;631;51.024;13.826;2023-08-07T05:18:45;21.10;;;19.47;;
1276;SDS011;631;51.024;13.826;2023-08-07T05:21:11;20.90;;;19.30;;
1276;SDS011;631;51.024;13.826;2023-08-07T05:23:37;21.57;;;19.87;;
1276;SDS011;631;51.024;13.826;2023-08-07T05:26:02;21.47;;;19.67;;
1276;SDS011;631;51.024;13.826;2023-08-07T05:28:28;21.70;;;19.90;;
1276;SDS011;631;51.024;13.826;2023-08-07T05:30:54;20.40;;;18.90;;
1276;SDS011;631;51.024;13.826;2023-08-07T05:33:19;20.13;;;18.53;;
1276;SDS011;631;51.024;13.826;2023-08-07T05:35:45;20.07;;;18.47;;
1276;SDS011;631;51.024;13.826;2023-08-07T05:38:10;20.17;;;18.70;;
1276;SDS011;631;51.024;13.826;2023-08-07T05:40:36;19.43;;;17.73;;
1276;SDS011;631;51.024;13.826;2023-08-07T05:43:02;18.67;;;17.13;;
1276;SDS011;631;51.024;13.826;2023-08-07T05:45:28;19.77;;;18.07;;
1276;SDS011;631;51.024;13.826;2023-08-07T05:47:53;17.13;;;15.73;;
1276;SDS011;631;51.024;13.826;2023-08-07T05:50:19;18.17;;;16.73;;
1276;SDS011;631;51.024;13.826;2023-08-07T05:52:45;17.93;;;16.20;;
1276;SDS011;631;51.024;13.826;2023-08-07T05:55:10;18.33;;;17.03;;
1276;SDS011;631;51.024;13.826;2023-08-07T05:57:36;17.87;;;16.57;;
1276;SDS011;631;51.024;13.826;2023-08-07T06:00:02;17.63;;;16.40;;
1276;SDS011;631;51.024;13.826;2023-08-07T06:02:28;16.07;;;15.07;;
1276;SDS011;631;51.024;13.826;2023-08-07T06:04:53;16.50;;;15.37;;
1276;SDS011;631;51.024;13.826;2023-08-07T06:07:19;16.00;;;15.00;;
1276;SDS011;631;51.024;13.826;2023-08-07T06:09:45;17.00;;;15.90;;
1276;SDS011;631;51.024;13.826;2023-08-07T06:12:11;16.13;;;15.13;;
1276;SDS011;631;51.024;13.826;2023-08-07T06:14:37;16.73;;;15.73;;
1276;SDS011;631;51.024;13.826;2023-08-07T06:17:03;15.13;;;14.20;;
1276;SDS011;631;51.024;13.826;2023-08-07T06:19:28;15.40;;;14.27;;
1276;SDS011;631;51.024;13.826;2023-08-07T06:21:54;16.47;;;15.37;;
1276;SDS011;631;51.024;13.826;2023-08-07T06:24:20;14.97;;;14.07;;
1276;SDS011;631;51.024;13.826;2023-08-07T06:26:45;16.40;;;15.40;;
1276;SDS011;631;51.024;13.826;2023-08-07T06:29:11;16.40;;;15.30;;
1276;SDS011;631;51.024;13.826;2023-08-07T06:31:36;14.97;;;14.17;;
1276;SDS011;631;51.024;13.826;2023-08-07T06:34:02;15.80;;;14.80;;
1276;SDS011;631;51.024;13.826;2023-08-07T06:36:27;15.37;;;14.47;;
1276;SDS011;631;51.024;13.826;2023-08-07T06:38:53;15.03;;;14.10;;
1276;SDS011;631;51.024;13.826;2023-08-07T06:41:19;15.37;;;14.53;;
1276;SDS011;631;51.024;13.826;2023-08-07T06:43:45;15.90;;;14.90;;
1276;SDS011;631;51.024;13.826;2023-08-07T06:46:10;14.70;;;13.87;;
1276;SDS011;631;51.024;13.826;2023-08-07T06:48:36;15.20;;;14.37;;
1276;SDS011;631;51.024;13.826;2023-08-07T06:51:02;15.03;;;14.17;;
1276;SDS011;631;51.024;13.826;2023-08-07T06:53:27;14.40;;;13.50;;
1276;SDS011;631;51.024;13.826;2023-08-07T06:55:53;14.60;;;13.80;;
1276;SDS011;631;51.024;13.826;2023-08-07T06:58:19;14.67;;;13.87;;
1276;SDS011;631;51.024;13.826;2023-08-07T07:00:45;14.70;;;13.87;;
1276;SDS011;631;51.024;13.826;2023-08-07T07:03:11;14.30;;;13.50;;
1276;SDS011;631;51.024;13.826;2023-08-07T07:05:36;13.90;;;13.20;;
1276;SDS011;631;51.024;13.826;2023-08-07T07:08:02;14.60;;;13.80;;
1276;SDS011;631;51.024;13.826;2023-08-07T07:10:28;14.13;;;13.33;;
1276;SDS011;631;51.024;13.826;2023-08-07T07:12:54;14.60;;;13.80;;
1276;SDS011;631;51.024;13.826;2023-08-07T07:15:20;13.87;;;13.07;;
1276;SDS011;631;51.024;13.826;2023-08-07T07:17:45;13.93;;;13.13;;
1276;SDS011;631;51.024;13.826;2023-08-07T07:20:11;13.77;;;12.97;;
1276;SDS011;631;51.024;13.826;2023-08-07T07:22:37;14.03;;;13.23;;
1276;SDS011;631;51.024;13.826;2023-08-07T07:25:03;13.90;;;13.20;;
1276;SDS011;631;51.024;13.826;2023-08-07T07:27:29;14.23;;;13.33;;
1276;SDS011;631;51.024;13.826;2023-08-07T07:29:54;13.63;;;12.80;;
1276;SDS011;631;51.024;13.826;2023-08-07T07:32:20;13.33;;;12.73;;
1276;SDS011;631;51.024;13.826;2023-08-07T07:34:46;12.90;;;12.30;;
1276;SDS011;631;51.024;13.826;2023-08-07T07:37:11;13.70;;;13.00;;
1276;SDS011;631;51.024;13.826;2023-08-07T07:39:39;13.87;;;13.07;;
1276;SDS011;631;51.024;13.826;2023-08-07T07:42:05;13.67;;;12.97;;
1276;SDS011;631;51.024;13.826;2023-08-07T07:44:31;13.43;;;12.63;;
1276;SDS011;631;51.024;13.826;2023-08-07T07:46:58;12.50;;;11.90;;
1276;SDS011;631;51.024;13.826;2023-08-07T07:49:24;13.33;;;12.53;;
1276;SDS011;631;51.024;13.826;2023-08-07T07:51:49;13.10;;;12.50;;
1276;SDS011;631;51.024;13.826;2023-08-07T07:54:15;12.70;;;12.10;;
1276;SDS011;631;51.024;13.826;2023-08-07T07:56:41;12.57;;;11.93;;
1276;SDS011;631;51.024;13.826;2023-08-07T07:59:08;12.93;;;12.23;;
1276;SDS011;631;51.024;13.826;2023-08-07T08:01:33;12.47;;;11.80;;
1276;SDS011;631;51.024;13.826;2023-08-07T08:03:59;12.97;;;12.37;;
1276;SDS011;631;51.024;13.826;2023-08-07T08:06:24;13.33;;;12.63;;
1276;SDS011;631;51.024;13.826;2023-08-07T08:08:50;12.93;;;12.33;;
1276;SDS011;631;51.024;13.826;2023-08-07T08:11:15;12.30;;;11.70;;
1276;SDS011;631;51.024;13.826;2023-08-07T08:13:41;12.67;;;12.07;;
1276;SDS011;631;51.024;13.826;2023-08-07T08:16:07;11.97;;;11.47;;
1276;SDS011;631;51.024;13.826;2023-08-07T08:18:32;12.73;;;12.10;;
1276;SDS011;631;51.024;13.826;2023-08-07T08:20:58;12.80;;;12.20;;
1276;SDS011;631;51.024;13.826;2023-08-07T08:23:23;12.43;;;11.83;;
1276;SDS011;631;51.024;13.826;2023-08-07T08:25:49;12.80;;;12.20;;
1276;SDS011;631;51.024;13.826;2023-08-07T08:28:16;11.70;;;11.20;;
1276;SDS011;631;51.024;13.826;2023-08-07T08:30:42;12.70;;;12.10;;
1276;SDS011;631;51.024;13.826;2023-08-07T08:33:08;12.10;;;11.50;;
1276;SDS011;631;51.024;13.826;2023-08-07T08:35:37;12.10;;;11.57;;
1276;SDS011;631;51.024;13.826;2023-08-07T08:38:03;12.33;;;11.73;;
1276;SDS011;631;51.024;13.826;2023-08-07T08:40:33;12.13;;;11.53;;
1276;SDS011;631;51.024;13.826;2023-08-07T08:43:00;11.87;;;11.27;;
1276;SDS011;631;51.024;13.826;2023-08-07T08:45:26;12.03;;;11.33;;
1276;SDS011;631;51.024;13.826;2023-08-07T08:47:54;10.90;;;10.40;;
1276;SDS011;631;51.024;13.826;2023-08-07T08:50:24;12.70;;;12.10;;
1276;SDS011;631;51.024;13.826;2023-08-07T08:52:51;11.37;;;10.77;;
1276;SDS011;631;51.024;13.826;2023-08-07T08:55:20;12.60;;;11.90;;
1276;SDS011;631;51.024;13.826;2023-08-07T08:57:46;12.50;;;11.90;;
1276;SDS011;631;51.024;13.826;2023-08-07T09:00:13;12.10;;;11.40;;
1276;SDS011;631;51.024;13.826;2023-08-07T09:02:50;10.60;;;10.10;;
1276;SDS011;631;51.024;13.826;2023-08-07T09:05:17;11.80;;;11.30;;
1276;SDS011;631;51.024;13.826;2023-08-07T09:07:45;11.90;;;11.30;;
1276;SDS011;631;51.024;13.826;2023-08-07T09:10:12;12.07;;;11.57;;
1276;SDS011;631;51.024;13.826;2023-08-07T09:13:01;11.40;;;10.90;;
1276;SDS011;631;51.024;13.826;2023-08-07T09:15:30;11.20;;;10.70;;
1276;SDS011;631;51.024;13.826;2023-08-07T09:17:56;11.70;;;11.20;;
1276;SDS011;631;51.024;13.826;2023-08-07T09:20:24;11.00;;;10.50;;
1276;SDS011;631;51.024;13.826;2023-08-07T09:22:50;10.97;;;10.50;;
1276;SDS011;631;51.024;13.826;2023-08-07T09:25:37;12.20;;;11.60;;
1276;SDS011;631;51.024;13.826;2023-08-07T09:28:06;10.87;;;10.37;;
1276;SDS011;631;51.024;13.826;2023-08-07T09:30:32;11.83;;;11.33;;
1276;SDS011;631;51.024;13.826;2023-08-07T09:33:01;11.57;;;10.97;;
1276;SDS011;631;51.024;13.826;2023-08-07T09:35:27;11.87;;;11.37;;
1276;SDS011;631;51.024;13.826;2023-08-07T09:37:56;11.27;;;10.77;;
1276;SDS011;631;51.024;13.826;2023-08-07T09:40:22;12.17;;;11.47;;
1276;SDS011;631;51.024;13.826;2023-08-07T09:42:51;12.10;;;11.50;;
1276;SDS011;631;51.024;13.826;2023-08-07T09:45:24;10.60;;;10.10;;
1276;SDS011;631;51.024;13.826;2023-08-07T09:50:26;12.13;;;11.63;;
1276;SDS011;631;51.024;13.826;2023-08-07T09:52:53;11.33;;;10.83;;
1276;SDS011;631;51.024;13.826;2023-08-07T09:55:20;10.67;;;10.17;;
1276;SDS011;631;51.024;13.826;2023-08-07T09:57:46;10.70;;;10.20;;
1276;SDS011;631;51.024;13.826;2023-08-07T10:00:14;11.13;;;10.63;;
1276;SDS011;631;51.024;13.826;2023-08-07T10:02:40;11.17;;;10.67;;
1276;SDS011;631;51.024;13.826;2023-08-07T10:05:10;11.00;;;10.50;;
1276;SDS011;631;51.024;13.826;2023-08-07T10:07:38;11.33;;;10.83;;
1276;SDS011;631;51.024;13.826;2023-08-07T10:10:04;11.20;;;10.40;;
1276;SDS011;631;51.024;13.826;2023-08-07T10:12:31;11.10;;;10.60;;
1276;SDS011;631;51.024;13.826;2023-08-07T10:14:57;11.63;;;11.07;;
1276;SDS011;631;51.024;13.826;2023-08-07T10:17:24;10.93;;;10.53;;
1276;SDS011;631;51.024;13.826;2023-08-07T10:19:53;11.47;;;10.97;;
1276;SDS011;631;51.024;13.826;2023-08-07T10:22:19;11.53;;;11.03;;
1276;SDS011;631;51.024;13.826;2023-08-07T10:24:47;11.33;;;10.83;;
1276;SDS011;631;51.024;13.826;2023-08-07T10:27:14;10.50;;;10.10;;
1276;SDS011;631;51.024;13.826;2023-08-07T10:29:44;11.50;;;11.00;;
1276;SDS011;631;51.024;13.826;2023-08-07T10:32:11;11.47;;;10.97;;
1276;SDS011;631;51.024;13.826;2023-08-07T10:34:40;11.70;;;11.20;;
1276;SDS011;631;51.024;13.826;2023-08-07T10:37:25;12.00;;;11.47;;
1276;SDS011;631;51.024;13.826;2023-08-07T10:40:03;12.33;;;11.73;;
1276;SDS011;631;51.024;13.826;2023-08-07T10:45:21;14.27;;;13.57;;
1276;SDS011;631;51.024;13.826;2023-08-07T10:47:57;14.13;;;13.53;;
1276;SDS011;631;51.024;13.826;2023-08-07T10:50:28;13.63;;;13.00;;
1276;SDS011;631;51.024;13.826;2023-08-07T10:52:55;13.00;;;12.40;;
1276;SDS011;631;51.024;13.826;2023-08-07T10:55:20;12.07;;;11.57;;
1276;SDS011;631;51.024;13.826;2023-08-07T10:57:48;13.20;;;12.60;;
1276;SDS011;631;51.024;13.826;2023-08-07T11:00:13;13.30;;;12.60;;
1276;SDS011;631;51.024;13.826;2023-08-07T11:02:41;13.57;;;12.87;;
1276;SDS011;631;51.024;13.826;2023-08-07T11:05:06;13.07;;;12.47;;
1276;SDS011;631;51.024;13.826;2023-08-07T11:07:33;12.40;;;11.83;;
1276;SDS011;631;51.024;13.826;2023-08-07T11:09:59;11.73;;;11.13;;
1276;SDS011;631;51.024;13.826;2023-08-07T11:12:25;11.53;;;11.03;;
1276;SDS011;631;51.024;13.826;2023-08-07T11:14:51;11.50;;;11.00;;
1276;SDS011;631;51.024;13.826;2023-08-07T11:17:29;11.87;;;11.37;;
1276;SDS011;631;51.024;13.826;2023-08-07T11:19:56;11.47;;;10.93;;
1276;SDS011;631;51.024;13.826;2023-08-07T11:22:22;11.20;;;10.70;;
1276;SDS011;631;51.024;13.826;2023-08-07T11:24:49;11.17;;;10.67;;
1276;SDS011;631;51.024;13.826;2023-08-07T11:27:15;10.77;;;10.37;;
1276;SDS011;631;51.024;13.826;2023-08-07T11:29:41;10.97;;;10.50;;
1276;SDS011;631;51.024;13.826;2023-08-07T11:32:07;11.03;;;10.63;;
1276;SDS011;631;51.024;13.826;2023-08-07T11:34:33;12.00;;;11.40;;
1276;SDS011;631;51.024;13.826;2023-08-07T11:37:00;11.33;;;10.83;;
1276;SDS011;631;51.024;13.826;2023-08-07T11:39:26;11.47;;;10.97;;
1276;SDS011;631;51.024;13.826;2023-08-07T11:41:51;10.93;;;10.50;;
1276;SDS011;631;51.024;13.826;2023-08-07T11:44:20;12.53;;;11.83;;
1276;SDS011;631;51.024;13.826;2023-08-07T11:46:47;13.87;;;13.27;;
1276;SDS011;631;51.024;13.826;2023-08-07T11:49:12;14.33;;;13.63;;
1276;SDS011;631;51.024;13.826;2023-08-07T11:51:38;14.37;;;13.67;;
1276;SDS011;631;51.024;13.826;2023-08-07T11:54:04;15.00;;;14.30;;
1276;SDS011;631;51.024;13.826;2023-08-07T11:56:31;14.47;;;13.77;;
1276;SDS011;631;51.024;13.826;2023-08-07T11:58:56;14.60;;;14.00;;
1276;SDS011;631;51.024;13.826;2023-08-07T12:01:23;14.90;;;14.20;;
1276;SDS011;631;51.024;13.826;2023-08-07T12:03:58;15.30;;;14.60;;
1276;SDS011;631;51.024;13.826;2023-08-07T12:06:34;13.87;;;13.27;;
1276;SDS011;631;51.024;13.826;2023-08-07T12:09:01;14.07;;;13.47;;
1276;SDS011;631;51.024;13.826;2023-08-07T12:11:30;15.00;;;14.30;;
1276;SDS011;631;51.024;13.826;2023-08-07T12:13:59;14.80;;;14.10;;
1276;SDS011;631;51.024;13.826;2023-08-07T12:16:26;14.10;;;13.40;;
1276;SDS011;631;51.024;13.826;2023-08-07T12:18:58;13.50;;;12.90;;
1276;SDS011;631;51.024;13.826;2023-08-07T12:21:23;12.97;;;12.37;;
1276;SDS011;631;51.024;13.826;2023-08-07T12:23:55;13.10;;;12.40;;
1276;SDS011;631;51.024;13.826;2023-08-07T12:26:23;13.60;;;13.00;;
1276;SDS011;631;51.024;13.826;2023-08-07T12:28:49;13.40;;;12.80;;
1276;SDS011;631;51.024;13.826;2023-08-07T12:31:14;12.17;;;11.67;;
1276;SDS011;631;51.024;13.826;2023-08-07T12:33:42;11.90;;;11.40;;
1276;SDS011;631;51.024;13.826;2023-08-07T12:36:08;12.40;;;11.90;;
1276;SDS011;631;51.024;13.826;2023-08-07T12:38:33;11.60;;;11.10;;
1276;SDS011;631;51.024;13.826;2023-08-07T12:40:59;11.60;;;11.10;;
1276;SDS011;631;51.024;13.826;2023-08-07T12:43:25;11.30;;;10.80;;
1276;SDS011;631;51.024;13.826;2023-08-07T12:45:51;10.83;;;10.33;;
1276;SDS011;631;51.024;13.826;2023-08-07T12:48:17;10.30;;;9.90;;
1276;SDS011;631;51.024;13.826;2023-08-07T12:50:44;10.30;;;9.90;;
1276;SDS011;631;51.024;13.826;2023-08-07T12:53:09;11.23;;;10.73;;
1276;SDS011;631;51.024;13.826;2023-08-07T12:55:35;11.47;;;10.93;;
1276;SDS011;631;51.024;13.826;2023-08-07T12:58:00;11.23;;;10.67;;
1276;SDS011;631;51.024;13.826;2023-08-07T13:00:26;11.30;;;10.80;;
1276;SDS011;631;51.024;13.826;2023-08-07T13:02:52;12.00;;;11.30;;
1276;SDS011;631;51.024;13.826;2023-08-07T13:05:20;11.30;;;10.80;;
1276;SDS011;631;51.024;13.826;2023-08-07T13:07:46;10.70;;;10.30;;
1276;SDS011;631;51.024;13.826;2023-08-07T13:10:13;10.90;;;10.40;;
1276;SDS011;631;51.024;13.826;2023-08-07T13:12:41;10.60;;;10.10;;
1276;SDS011;631;51.024;13.826;2023-08-07T13:15:08;11.23;;;10.73;;
1276;SDS011;631;51.024;13.826;2023-08-07T13:17:37;11.30;;;10.80;;
1276;SDS011;631;51.024;13.826;2023-08-07T13:20:03;11.60;;;11.10;;
1276;SDS011;631;51.024;13.826;2023-08-07T13:22:39;10.73;;;10.23;;
1276;SDS011;631;51.024;13.826;2023-08-07T13:25:07;11.23;;;10.73;;
1276;SDS011;631;51.024;13.826;2023-08-07T13:27:34;11.13;;;10.63;;
1276;SDS011;631;51.024;13.826;2023-08-07T13:30:00;10.27;;;9.87;;
1276;SDS011;631;51.024;13.826;2023-08-07T13:32:26;10.57;;;10.07;;
1276;SDS011;631;51.024;13.826;2023-08-07T13:34:52;9.20;;;8.83;;
1276;SDS011;631;51.024;13.826;2023-08-07T13:37:17;9.37;;;9.07;;
1276;SDS011;631;51.024;13.826;2023-08-07T13:39:43;8.90;;;8.60;;
1276;SDS011;631;51.024;13.826;2023-08-07T13:42:09;10.00;;;9.60;;
1276;SDS011;631;51.024;13.826;2023-08-07T13:44:35;10.20;;;9.80;;
1276;SDS011;631;51.024;13.826;2023-08-07T13:47:01;10.17;;;9.77;;
1276;SDS011;631;51.024;13.826;2023-08-07T13:49:27;10.60;;;10.20;;
1276;SDS011;631;51.024;13.826;2023-08-07T13:51:53;10.60;;;10.20;;
1276;SDS011;631;51.024;13.826;2023-08-07T13:54:19;11.10;;;10.70;;
1276;SDS011;631;51.024;13.826;2023-08-07T13:56:44;10.60;;;10.20;;
1276;SDS011;631;51.024;13.826;2023-08-07T13:59:10;9.63;;;9.27;;
1276;SDS011;631;51.024;13.826;2023-08-07T14:01:36;10.30;;;9.90;;
1276;SDS011;631;51.024;13.826;2023-08-07T14:04:02;11.03;;;10.63;;
1276;SDS011;631;51.024;13.826;2023-08-07T14:06:28;13.93;;;13.33;;
1276;SDS011;631;51.024;13.826;2023-08-07T14:08:53;13.40;;;12.80;;
1276;SDS011;631;51.024;13.826;2023-08-07T14:11:20;14.70;;;14.00;;
1276;SDS011;631;51.024;13.826;2023-08-07T14:13:46;14.90;;;14.20;;
1276;SDS011;631;51.024;13.826;2023-08-07T14:16:12;14.00;;;13.40;;
1276;SDS011;631;51.024;13.826;2023-08-07T14:18:38;15.50;;;14.80;;
1276;SDS011;631;51.024;13.826;2023-08-07T14:21:04;14.40;;;13.70;;
1276;SDS011;631;51.024;13.826;2023-08-07T14:23:30;14.60;;;13.90;;
1276;SDS011;631;51.024;13.826;2023-08-07T14:25:55;13.83;;;13.23;;
1276;SDS011;631;51.024;13.826;2023-08-07T14:28:21;13.90;;;13.30;;
1276;SDS011;631;51.024;13.826;2023-08-07T14:30:47;12.37;;;11.77;;
1276;SDS011;631;51.024;13.826;2023-08-07T14:33:13;12.30;;;11.60;;
1276;SDS011;631;51.024;13.826;2023-08-07T14:35:39;11.70;;;11.10;;
1276;SDS011;631;51.024;13.826;2023-08-07T14:38:05;12.70;;;12.10;;
1276;SDS011;631;51.024;13.826;2023-08-07T14:40:30;12.83;;;12.23;;
1276;SDS011;631;51.024;13.826;2023-08-07T14:42:56;12.80;;;12.10;;
1276;SDS011;631;51.024;13.826;2023-08-07T14:45:22;12.03;;;11.33;;
1276;SDS011;631;51.024;13.826;2023-08-07T14:47:48;11.20;;;10.70;;
1276;SDS011;631;51.024;13.826;2023-08-07T14:50:14;12.10;;;11.50;;
1276;SDS011;631;51.024;13.826;2023-08-07T14:52:43;11.37;;;10.87;;
1276;SDS011;631;51.024;13.826;2023-08-07T14:55:08;11.90;;;11.40;;
1276;SDS011;631;51.024;13.826;2023-08-07T14:57:34;11.50;;;11.00;;
1276;SDS011;631;51.024;13.826;2023-08-07T15:00:00;11.20;;;10.70;;